x

Venice, Fl (venf1) Weather Station

4:00am - Thu 28th Jul 2016 All times are EDT. -4 hours from GMT.

  • Wind
    6mph, 7mph gusts
  • Sea Temp 89°f
  • Air Temp 79°f
  • Sea Pressure 1016.8mb
  • Venice, Fl
  • Venice, Fl

More Historic Weather Station data

Upgrade to MSW Pro to gain access to the past 30 days of data for over 8000 Wavebouys and Weather Stations around the globe.

Join Pro

Comparision Forecast

View Surf forecast
   
Thu 07/28 4:00am 6 7 mph 1016.8mb 89f 79f
3:00am 8 10 mph 1017.1mb 89f 79f
2:00am 5 6 mph 1017.3mb 89f 80f
1:00am 7 8 mph 1017.7mb 89f 81f
12:00am 6 8 mph 1017.7mb 90f 81f
Wed 07/27 11:00pm 3 5 mph 1017.7mb 90f 80f
10:00pm 5
mph
1017mb 90f 80f
9:00pm 5 6 mph 1016.5mb 90f 81f
8:00pm 6
mph
1016.4mb 90f 80f
7:00pm 3 5 mph 1016.2mb 90f 84f
6:00pm 9 10 mph 1016.3mb 90f 81f
5:00pm 8 9 mph 1015.8mb 91f 88f
4:00pm 9 10 mph 1016.6mb 90f 88f
3:00pm 10 11 mph 1016.9mb 90f 88f
2:00pm 13 14 mph 1017.5mb 89f 88f
1:00pm 7 9 mph 1017.8mb 89f 89f
12:00pm 6
mph
1018.4mb 89f 88f
11:00am 10 13 mph 1018.5mb 89f 87f
10:00am 9 13 mph 1018.6mb 88f 86f
9:00am 9 11 mph 1018.7mb 88f 83f
8:00am 3 6 mph 1018.2mb 88f 80f
7:00am 5 6 mph 1017.5mb 88f 78f
6:00am 7 8 mph 1017mb 88f 79f
5:00am 5 7 mph 1017mb 88f 80f
4:00am 7 9 mph 1017mb 88f 80f
3:00am 6 7 mph 1017.5mb 88f 81f
2:00am 3 5 mph 1017.8mb 89f 82f
1:00am 6 7 mph 1018mb 89f 83f
12:00am 5 6 mph 1018mb 89f 83f
Tue 07/26 11:00pm 3 5 mph 1018mb 89f 84f
10:00pm 3
mph
1017.4mb 89f 85f
9:00pm 1 2 mph 1016.9mb 89f 86f
8:00pm 3 5 mph 1016.5mb 89f 86f
7:00pm 3 5 mph 1015.8mb 89f 87f
6:00pm 5 6 mph 1015.8mb 89f 84f
5:00pm 8 13 mph 1016.7mb 89f 82f
4:00pm 10 11 mph 1016.4mb 89f 88f
3:00pm 10 11 mph 1017.1mb 89f 88f
2:00pm 9 10 mph 1017.7mb 89f 87f
1:00pm 9
mph
1018.1mb 88f 87f
12:00pm 8 10 mph 1018.4mb 88f 88f
11:00am 7 9 mph 1018.4mb 88f 87f
10:00am 6 7 mph 1018.2mb 87f 85f
9:00am 3
mph
1018.2mb 87f 83f
8:00am 5
mph
1018mb 87f 80f
7:00am 5 6 mph 1017.6mb 87f 78f
6:00am 6 7 mph 1017.3mb 87f 78f
5:00am 6 7 mph 1017.2mb 87f 77f
4:00am 6 7 mph 1017.3mb 88f 78f
3:00am 5
mph
1017.5mb 88f 80f
2:00am 5
mph
1017.9mb 88f 79f
1:00am 6 7 mph 1017.9mb 88f 80f
12:00am 6 7 mph 1017.7mb 88f 81f
Mon 07/25 11:00pm 6 7 mph 1017.7mb 88f 86f
10:00pm 6 7 mph 1017.4mb 88f 85f
9:00pm 8 9 mph 1017mb 89f 86f
8:00pm 9 10 mph 1016.7mb 89f 86f
7:00pm 11 14 mph 1015.9mb 89f 87f
6:00pm 8 9 mph 1015.6mb 89f 87f
5:00pm 9 10 mph 1015.5mb 89f 87f
4:00pm 11 14 mph 1016.2mb 88f 87f
3:00pm 11 14 mph 1016.5mb 88f 87f
2:00pm 13 14 mph 1017.5mb 87f 87f
1:00pm 8 13 mph 1017.7mb 87f 87f
12:00pm 7 10 mph 1017.8mb 87f 86f
11:00am 8 9 mph 1018mb 87f 85f
10:00am 8 11 mph 1018.1mb 87f 83f
9:00am 7 8 mph 1017.8mb 87f 82f
8:00am 7 9 mph 1017mb 87f 79f
7:00am 7 8 mph 1016.8mb 87f 78f
6:00am 6 7 mph 1016.4mb 87f 78f
5:00am 6 7 mph 1016.2mb 87f 78f
4:00am 6
mph
1016.3mb 87f 78f
3:00am 8
mph
1016.6mb 87f 83f
2:00am 8 9 mph 1017.4mb 87f 83f
1:00am 7 8 mph 1017.5mb 87f 83f
12:00am 9 10 mph 1017.7mb 88f 82f
Sun 07/24 11:00pm 11 14 mph 1017.8mb 88f 83f
10:00pm 9 10 mph 1017.2mb 88f 82f
9:00pm 8 10 mph 1016.7mb 88f 81f
8:00pm 10 11 mph 1016.6mb 89f 82f
7:00pm 16 18 mph 1016.5mb 89f 81f
6:00pm 13 15 mph 1016.4mb 89f 85f
5:00pm 9 10 mph 1016.3mb 89f 84f
4:00pm 10 13 mph 1016mb 89f 85f
3:00pm 13 14 mph 1016.3mb 88f 84f
2:00pm 13 15 mph 1017mb 88f 84f
1:00pm 11 14 mph 1017.8mb 88f 84f
12:00pm 9 10 mph 1017.6mb 87f 84f
11:00am 9 10 mph 1017.1mb 87f 84f
10:00am 7 8 mph 1016.8mb 87f 84f